createdAt,value
2022-09-29T07:08:00.916Z,10.75
2022-09-29T07:10:29.780Z,4.83
2022-09-29T07:12:59.877Z,4.50
2022-09-29T07:15:31.743Z,3.50
2022-09-29T07:18:01.117Z,3.90
2022-09-29T07:20:30.963Z,5.80
2022-09-29T07:22:59.346Z,4.03
2022-09-29T07:25:50.655Z,4.47
2022-09-29T07:28:17.431Z,4.20
2022-09-29T07:30:45.579Z,4.70
2022-09-29T07:33:13.741Z,6.00
2022-09-29T07:35:41.856Z,5.50
2022-09-29T07:38:10.031Z,5.07
2022-09-29T07:40:38.276Z,4.60
2022-09-29T07:43:07.737Z,5.23
2022-09-29T07:45:37.400Z,5.20
2022-09-29T07:48:05.523Z,3.57
2022-09-29T07:50:33.708Z,6.67
2022-09-29T07:53:01.795Z,7.07
2022-09-29T07:55:30.366Z,3.87
2022-09-29T07:57:58.525Z,3.73
2022-09-29T08:00:26.618Z,3.73
2022-09-29T08:02:56.135Z,4.13
2022-09-29T08:05:24.295Z,3.50
2022-09-29T08:07:54.058Z,3.20
2022-09-29T08:10:22.479Z,2.87
2022-09-29T08:12:50.747Z,2.90
2022-09-29T08:15:19.089Z,3.00
2022-09-29T08:17:47.294Z,3.00
2022-09-29T08:20:17.086Z,3.10
2022-09-29T08:22:45.409Z,3.87
2022-09-29T08:25:13.738Z,3.03
2022-09-29T08:27:53.003Z,3.20
2022-09-29T08:30:22.487Z,3.03
2022-09-29T08:32:53.536Z,3.03
2022-09-29T08:35:23.544Z,2.77
2022-09-29T08:37:51.818Z,3.43
2022-09-29T08:40:20.378Z,2.47
2022-09-29T08:42:57.393Z,3.07
2022-09-29T08:45:31.128Z,3.27
2022-09-29T08:48:19.069Z,2.50
2022-09-29T08:50:57.592Z,2.27
2022-09-29T08:53:29.406Z,3.50
2022-09-29T08:56:01.686Z,2.20
2022-09-29T08:58:30.052Z,2.60
2022-09-29T09:01:10.123Z,2.57
2022-09-29T09:04:06.702Z,4.20
2022-09-29T09:06:50.687Z,3.00
2022-09-29T09:09:48.622Z,2.70
2022-09-29T09:12:30.086Z,2.23
2022-09-29T09:15:19.264Z,2.00
2022-09-29T09:18:10.517Z,2.50
2022-09-29T09:20:45.915Z,2.33
2022-09-29T09:23:23.296Z,2.67
2022-09-29T09:25:55.417Z,2.80
2022-09-29T09:28:29.134Z,2.20
2022-09-29T09:31:02.106Z,2.43
2022-09-29T09:33:37.955Z,2.50
2022-09-29T09:36:12.003Z,2.60
2022-09-29T09:38:51.700Z,2.60
2022-09-29T09:41:23.894Z,2.53
2022-09-29T09:43:58.906Z,2.87
2022-09-29T09:46:34.760Z,2.40
2022-09-29T09:49:08.386Z,2.37
2022-09-29T09:51:48.310Z,2.50
2022-09-29T09:54:25.805Z,2.43
2022-09-29T09:57:08.248Z,2.50
2022-09-29T09:59:46.717Z,2.80
2022-09-29T10:02:20.520Z,1.80
2022-09-29T10:04:52.269Z,1.90
2022-09-29T10:07:22.043Z,2.17
2022-09-29T10:09:52.300Z,2.00
2022-09-29T10:12:22.257Z,1.70
2022-09-29T10:14:55.864Z,3.90
2022-09-29T10:17:28.668Z,2.20
2022-09-29T10:19:59.544Z,2.37
2022-09-29T10:22:29.369Z,1.77
2022-09-29T10:25:09.345Z,1.80
2022-09-29T10:27:43.130Z,1.70
2022-09-29T10:30:20.997Z,2.07
2022-09-29T10:32:49.584Z,2.23
2022-09-29T10:35:21.083Z,2.17
2022-09-29T10:37:54.256Z,1.60
2022-09-29T10:40:23.990Z,2.40
2022-09-29T10:42:53.560Z,4.10
2022-09-29T10:45:23.985Z,2.83
2022-09-29T10:48:14.089Z,3.20
2022-09-29T10:50:51.512Z,3.90
2022-09-29T10:53:27.251Z,3.37
2022-09-29T10:55:58.850Z,5.73
2022-09-29T10:58:44.775Z,2.30
2022-09-29T11:01:21.155Z,2.00
2022-09-29T11:03:51.748Z,2.13
2022-09-29T11:06:27.363Z,1.95
2022-09-29T11:09:03.873Z,2.03
